Time;durP1;ratioP1;P1;durP2;ratioP2;P2;SDS_P1;SDS_P2;PMS_P1;PMS_P2;Temp;Humidity;BMP_temperature;BMP_pressure;BME280_temperature;BME280_humidity;BME280_pressure;Samples;Min_cycle;Max_cycle;Signal;HPM_P1;HPM_P2
2022/06/24 00:00:16;;;;;;;4.27;1.13;;;20.60;1.00;;;;;;5052833;28;20482;-90
2022/06/24 00:02:48;;;;;;;1.10;0.73;;;20.50;69.00;;;;;;5053919;28;20412;-88
2022/06/24 00:05:14;;;;;;;1.40;0.87;;;20.50;1.00;;;;;;5053095;28;20448;-88
2022/06/24 00:07:52;;;;;;;1.90;1.00;;;20.50;1.00;;;;;;5053980;28;20458;-87
2022/06/24 00:10:20;;;;;;;1.50;0.93;;;20.50;1.00;;;;;;5052004;28;20547;-86
2022/06/24 00:12:49;;;;;;;1.87;0.90;;;20.50;1.00;;;;;;5053513;28;20904;-91
2022/06/24 00:15:15;;;;;;;1.80;1.00;;;20.40;1.00;;;;;;5052148;28;20422;-86
2022/06/24 00:17:41;;;;;;;2.33;1.20;;;20.40;1.00;;;;;;5053181;28;20484;-89
2022/06/24 00:20:15;;;;;;;3.23;0.90;;;20.40;1.00;;;;;;5053302;28;20687;-89
2022/06/24 00:22:46;;;;;;;2.23;1.47;;;20.40;1.00;;;;;;5052075;28;20834;-87
2022/06/24 00:25:19;;;;;;;1.77;0.90;;;20.50;1.00;;;;;;5052472;28;20424;-87
2022/06/24 00:28:11;;;;;;;2.30;1.80;;;20.50;99.90;;;;;;5053441;28;20802;-90
2022/06/24 00:30:37;;;;;;;1.37;0.90;;;20.50;99.90;;;;;;5053693;28;20429;-90
2022/06/24 00:33:14;;;;;;;1.40;1.17;;;20.40;1.00;;;;;;5052486;28;20430;-86
2022/06/24 00:35:46;;;;;;;2.40;1.37;;;20.40;1.00;;;;;;5053338;28;20488;-86
2022/06/24 00:38:28;;;;;;;3.60;1.63;;;20.40;1.00;;;;;;5053998;28;20499;-90
2022/06/24 00:40:55;;;;;;;1.90;0.93;;;20.40;1.00;;;;;;5052308;28;20987;-87
2022/06/24 00:43:41;;;;;;;1.33;0.73;;;20.30;1.00;;;;;;5053643;28;20423;-89
2022/06/24 00:46:18;;;;;;;3.10;1.80;;;20.40;1.00;;;;;;5054699;28;20849;-87
2022/06/24 00:48:47;;;;;;;1.40;0.93;;;20.30;1.00;;;;;;5056100;28;20826;-87
2022/06/24 00:51:13;;;;;;;2.80;1.63;;;20.20;1.00;;;;;;5057470;28;20423;-90
2022/06/24 00:53:41;;;;;;;2.30;1.40;;;20.20;1.00;;;;;;5057288;28;20510;-90
2022/06/24 00:56:09;;;;;;;1.60;1.30;;;20.20;1.00;;;;;;5056079;28;20455;-89
2022/06/24 00:58:34;;;;;;;5.63;2.53;;;20.10;1.00;;;;;;5055940;28;20878;-86
2022/06/24 01:01:01;;;;;;;2.37;1.33;;;20.10;99.90;;;;;;5057064;28;20438;-88
2022/06/24 01:03:39;;;;;;;1.53;0.87;;;20.10;99.90;;;;;;5056880;28;20184;-87
2022/06/24 01:06:05;;;;;;;2.20;1.33;;;20.00;99.90;;;;;;5056276;28;20442;-92
2022/06/24 01:08:30;;;;;;;2.13;0.80;;;20.10;99.90;;;;;;5057124;28;20409;-89
2022/06/24 01:10:56;;;;;;;2.00;1.33;;;20.00;1.00;;;;;;5057166;28;20194;-89
2022/06/24 01:13:23;;;;;;;1.53;1.27;;;20.00;99.90;;;;;;5055752;28;20208;-88
2022/06/24 01:15:49;;;;;;;2.80;1.50;;;20.00;93.90;;;;;;5057193;28;20179;-89
2022/06/24 01:18:15;;;;;;;1.53;1.33;;;20.00;15.00;;;;;;5056572;28;20571;-90
2022/06/24 01:20:40;;;;;;;2.33;1.27;;;20.00;1.00;;;;;;5055333;28;20791;-86
2022/06/24 01:23:05;;;;;;;2.23;2.03;;;20.00;37.20;;;;;;5056815;28;20195;-88
2022/06/24 01:25:31;;;;;;;3.00;1.50;;;20.00;1.00;;;;;;5056518;28;20172;-86
2022/06/24 01:27:57;;;;;;;2.07;1.33;;;20.00;1.00;;;;;;5056123;28;20655;-88
2022/06/24 01:30:23;;;;;;;1.57;1.20;;;20.00;99.90;;;;;;5055156;28;20172;-87
2022/06/24 01:32:48;;;;;;;2.63;0.93;;;20.00;99.90;;;;;;5054764;28;20421;-88
2022/06/24 01:35:14;;;;;;;1.90;1.10;;;19.90;1.00;;;;;;5055196;28;20687;-88
2022/06/24 01:37:40;;;;;;;3.60;1.40;;;19.90;1.00;;;;;;5055022;28;20175;-89
2022/06/24 01:40:06;;;;;;;2.00;1.37;;;19.80;1.00;;;;;;5056297;28;20257;-88
2022/06/24 01:42:32;;;;;;;2.13;1.30;;;19.80;1.00;;;;;;5054882;28;20445;-87
2022/06/24 01:44:57;;;;;;;1.60;1.50;;;19.70;54.50;;;;;;5056439;28;20450;-87
2022/06/24 01:47:23;;;;;;;2.30;1.40;;;19.70;99.90;;;;;;5054806;28;20164;-88
2022/06/24 01:49:48;;;;;;;1.53;1.20;;;19.70;99.90;;;;;;5056213;28;20202;-89
2022/06/24 01:52:14;;;;;;;4.80;1.43;;;19.70;1.00;;;;;;5056141;28;20184;-87
2022/06/24 01:54:40;;;;;;;2.00;1.17;;;19.60;1.00;;;;;;5055971;28;20172;-88
2022/06/24 01:57:05;;;;;;;2.43;1.90;;;19.60;1.00;;;;;;5054009;28;20429;-88
2022/06/24 01:59:31;;;;;;;1.83;1.33;;;19.50;1.00;;;;;;5055844;28;20591;-88
2022/06/24 02:01:56;;;;;;;1.83;1.30;;;19.50;1.00;;;;;;5054938;28;20241;-87
2022/06/24 02:04:22;;;;;;;2.33;1.30;;;19.50;1.00;;;;;;5055518;28;20167;-88
2022/06/24 02:06:47;;;;;;;1.87;1.30;;;19.50;91.00;;;;;;5055796;28;20180;-87
2022/06/24 02:09:16;;;;;;;3.73;1.30;;;19.50;99.90;;;;;;5055859;28;20202;-90
2022/06/24 02:14:26;;;;;;;5.80;1.23;;;19.40;1.00;;;;;;5055939;28;20408;-89
2022/06/24 02:16:52;;;;;;;3.53;1.43;;;19.40;1.00;;;;;;5055770;28;20859;-87
2022/06/24 02:19:18;;;;;;;2.13;1.47;;;19.30;99.90;;;;;;5055297;28;20285;-88
2022/06/24 02:21:44;;;;;;;6.73;2.03;;;19.30;1.00;;;;;;5054498;28;20283;-87
2022/06/24 02:24:11;;;;;;;2.10;1.43;;;19.30;1.00;;;;;;5055705;28;20177;-89
2022/06/24 02:26:37;;;;;;;2.80;1.53;;;19.30;99.90;;;;;;5055969;28;20578;-91
2022/06/24 02:29:02;;;;;;;3.90;2.00;;;19.20;99.90;;;;;;5054315;28;20465;-90
2022/06/24 02:31:28;;;;;;;5.23;2.20;;;19.20;1.00;;;;;;5054251;28;20550;-91
2022/06/24 02:33:54;;;;;;;3.40;1.53;;;19.20;1.00;;;;;;5054956;28;20172;-86
2022/06/24 02:36:19;;;;;;;1.90;1.53;;;19.20;1.00;;;;;;5055525;28;20779;-86
2022/06/24 02:38:45;;;;;;;3.33;2.13;;;19.20;1.00;;;;;;5055210;28;20184;-85
2022/06/24 02:41:11;;;;;;;1.60;1.47;;;19.20;1.00;;;;;;5054588;28;20592;-89
2022/06/24 02:43:37;;;;;;;2.00;1.43;;;19.20;1.00;;;;;;5055179;28;20171;-92
2022/06/24 02:46:04;;;;;;;2.17;1.20;;;19.10;31.60;;;;;;5054292;28;20183;-89
2022/06/24 02:48:31;;;;;;;5.53;2.03;;;19.10;1.00;;;;;;5054144;28;20417;-90
2022/06/24 02:50:59;;;;;;;2.03;1.43;;;19.10;1.00;;;;;;5055288;28;20676;-89
2022/06/24 02:53:26;;;;;;;2.70;1.37;;;19.10;1.00;;;;;;5053738;28;20450;-88
2022/06/24 02:55:57;;;;;;;3.07;1.47;;;19.10;99.90;;;;;;5053914;28;20853;-90
2022/06/24 02:58:23;;;;;;;2.90;1.90;;;19.10;99.90;;;;;;5055523;28;20462;-92
2022/06/24 03:00:49;;;;;;;1.93;1.50;;;19.10;99.90;;;;;;5055430;28;20466;-91
2022/06/24 03:03:17;;;;;;;2.53;1.30;;;19.10;99.90;;;;;;5055106;28;20526;-91
2022/06/24 03:05:43;;;;;;;3.50;1.43;;;19.10;99.90;;;;;;5054347;28;20180;-89
2022/06/24 03:08:11;;;;;;;2.37;1.57;;;19.20;1.00;;;;;;5053736;28;20473;-90
2022/06/24 03:10:37;;;;;;;1.73;1.17;;;19.20;1.00;;;;;;5053646;28;20983;-90
2022/06/24 03:13:06;;;;;;;1.80;1.40;;;19.20;1.00;;;;;;5054104;28;20458;-90
2022/06/24 03:15:32;;;;;;;1.70;1.27;;;19.20;1.00;;;;;;5053919;28;20430;-89
2022/06/24 03:17:58;;;;;;;2.80;1.07;;;19.20;1.00;;;;;;5053376;28;20436;-89
2022/06/24 03:20:23;;;;;;;4.70;1.53;;;19.20;1.00;;;;;;5053759;28;20482;-89
2022/06/24 03:22:50;;;;;;;5.63;1.20;;;19.20;1.00;;;;;;5052882;28;20414;-90
2022/06/24 03:25:15;;;;;;;2.60;1.30;;;19.20;1.00;;;;;;5053934;28;20165;-90
2022/06/24 03:27:40;;;;;;;2.00;1.33;;;19.20;1.00;;;;;;5053479;28;20410;-91
2022/06/24 03:30:08;;;;;;;4.30;0.90;;;19.20;1.00;;;;;;5054486;28;20239;-91
2022/06/24 03:32:34;;;;;;;1.70;1.03;;;19.20;1.00;;;;;;5054497;28;20177;-90
2022/06/24 03:35:00;;;;;;;2.70;1.20;;;19.30;1.00;;;;;;5054299;28;20424;-89
2022/06/24 03:37:26;;;;;;;1.47;0.90;;;19.30;1.00;;;;;;5054475;28;20690;-90
2022/06/24 03:39:51;;;;;;;3.10;1.87;;;19.30;1.00;;;;;;5054152;28;20470;-91
2022/06/24 03:42:20;;;;;;;2.43;1.13;;;19.30;99.90;;;;;;5054716;28;20428;-90
2022/06/24 03:44:45;;;;;;;2.70;1.73;;;19.30;99.90;;;;;;5054635;28;20551;-90
2022/06/24 03:47:11;;;;;;;1.97;1.27;;;19.30;99.90;;;;;;5053009;28;20510;-89
2022/06/24 03:49:36;;;;;;;1.77;1.03;;;19.30;99.90;;;;;;5054541;28;20178;-91
2022/06/24 03:52:02;;;;;;;2.13;1.53;;;19.40;99.90;;;;;;5054315;28;20182;-90
2022/06/24 03:54:28;;;;;;;1.93;1.20;;;19.40;24.30;;;;;;5054338;28;20174;-91
2022/06/24 03:56:53;;;;;;;2.30;1.67;;;19.40;99.90;;;;;;5054225;28;20178;-89
2022/06/24 03:59:19;;;;;;;2.20;1.33;;;19.40;99.90;;;;;;5052922;28;20236;-89
2022/06/24 04:01:47;;;;;;;1.80;1.37;;;19.40;99.90;;;;;;5052575;28;20622;-90
2022/06/24 04:04:13;;;;;;;2.07;1.33;;;19.50;1.00;;;;;;5052708;28;20226;-87
2022/06/24 04:06:38;;;;;;;2.60;1.50;;;19.50;1.00;;;;;;5052730;28;20917;-91
2022/06/24 04:09:04;;;;;;;2.70;1.60;;;19.50;1.00;;;;;;5053263;28;20172;-89
2022/06/24 04:11:30;;;;;;;2.30;1.87;;;19.50;99.90;;;;;;5054109;28;20170;-89
2022/06/24 04:13:55;;;;;;;2.53;1.00;;;19.60;1.00;;;;;;5052953;28;20422;-93
2022/06/24 04:16:21;;;;;;;2.10;1.33;;;19.60;99.90;;;;;;5053007;28;20209;-92
2022/06/24 04:18:48;;;;;;;2.40;1.70;;;19.60;99.90;;;;;;5053687;28;20645;-93
2022/06/24 04:21:15;;;;;;;3.33;1.70;;;19.60;99.90;;;;;;5053961;28;20172;-89
2022/06/24 04:23:41;;;;;;;3.30;2.00;;;19.60;99.90;;;;;;5054254;28;20422;-93
2022/06/24 04:26:07;;;;;;;3.30;2.10;;;19.60;1.00;;;;;;5054134;28;20461;-92
2022/06/24 04:28:33;;;;;;;2.53;1.73;;;19.60;1.00;;;;;;5053780;28;20456;-87
2022/06/24 04:30:59;;;;;;;2.27;1.90;;;19.60;1.00;;;;;;5053923;28;20450;-88
2022/06/24 04:33:25;;;;;;;5.43;2.00;;;19.60;99.90;;;;;;5052031;28;20431;-92
2022/06/24 04:35:51;;;;;;;2.47;1.73;;;19.60;99.90;;;;;;5052801;28;20198;-92
2022/06/24 04:38:16;;;;;;;3.50;1.73;;;19.50;35.30;;;;;;5052911;28;20178;-89
2022/06/24 04:40:42;;;;;;;2.70;1.93;;;19.60;99.90;;;;;;5052563;28;20234;-91
2022/06/24 04:43:08;;;;;;;3.87;1.93;;;19.60;99.90;;;;;;5052659;28;20179;-91
2022/06/24 04:45:34;;;;;;;2.27;1.40;;;19.70;99.90;;;;;;5052856;28;20193;-87
2022/06/24 04:47:59;;;;;;;2.50;1.80;;;19.70;91.50;;;;;;5053268;28;20168;-86
2022/06/24 04:50:25;;;;;;;2.10;1.83;;;19.70;1.00;;;;;;5053289;28;20779;-87
2022/06/24 04:52:51;;;;;;;4.00;2.00;;;19.80;1.00;;;;;;5052177;28;20543;-92
2022/06/24 04:55:17;;;;;;;2.40;1.63;;;19.80;1.00;;;;;;5053927;28;20186;-91
2022/06/24 04:57:42;;;;;;;5.10;2.50;;;19.90;1.00;;;;;;5053717;28;20537;-92
2022/06/24 05:00:11;;;;;;;2.80;1.47;;;19.90;1.00;;;;;;5052597;28;20689;-92
2022/06/24 05:02:36;;;;;;;3.60;2.33;;;20.00;32.20;;;;;;5052849;28;20228;-89
2022/06/24 05:05:03;;;;;;;1.70;1.07;;;20.10;1.00;;;;;;5052675;28;20937;-90
2022/06/24 05:07:29;;;;;;;2.70;1.93;;;20.10;1.00;;;;;;5052879;28;20230;-93
2022/06/24 05:09:54;;;;;;;3.20;2.00;;;20.30;1.00;;;;;;5054114;28;20415;-92
2022/06/24 05:12:20;;;;;;;2.27;1.67;;;20.30;1.00;;;;;;5054500;28;20187;-92
2022/06/24 05:14:45;;;;;;;6.43;3.17;;;20.40;1.00;;;;;;5052814;28;20170;-91
2022/06/24 05:17:17;;;;;;;3.83;2.97;;;20.50;99.90;;;;;;5053089;28;20181;-87
2022/06/24 05:19:42;;;;;;;3.20;1.60;;;20.50;15.30;;;;;;5052879;28;20274;-89
2022/06/24 05:22:08;;;;;;;3.80;1.70;;;20.60;1.00;;;;;;5052214;28;20821;-92
2022/06/24 05:24:34;;;;;;;3.23;2.00;;;20.70;99.90;;;;;;5053303;28;20172;-88
2022/06/24 05:26:59;;;;;;;4.10;2.60;;;20.80;99.90;;;;;;5053281;28;20169;-92
2022/06/24 05:29:25;;;;;;;3.90;2.40;;;20.90;1.00;;;;;;5053623;28;20220;-92
2022/06/24 05:31:50;;;;;;;2.60;1.90;;;20.90;1.00;;;;;;5054545;28;20237;-91
2022/06/24 05:34:16;;;;;;;3.03;1.63;;;21.10;1.00;;;;;;5055892;28;20179;-92
2022/06/24 05:36:42;;;;;;;3.47;2.60;;;21.20;99.90;;;;;;5057588;28;20528;-93
2022/06/24 05:39:08;;;;;;;2.87;2.13;;;21.30;99.90;;;;;;5056896;28;20203;-94
2022/06/24 05:41:34;;;;;;;2.87;2.17;;;21.50;99.90;;;;;;5056927;28;20994;-92
2022/06/24 05:44:00;;;;;;;3.83;3.10;;;21.70;6.90;;;;;;5056757;28;20219;-92
2022/06/24 05:46:29;;;;;;;3.23;2.57;;;21.80;4.10;;;;;;5055899;28;20439;-92
2022/06/24 05:48:56;;;;;;;3.00;2.17;;;22.20;1.00;;;;;;5055970;28;20183;-92
2022/06/24 05:51:21;;;;;;;4.93;3.07;;;22.40;1.00;;;;;;5055994;28;20448;-91
2022/06/24 05:56:34;;;;;;;3.40;2.73;;;22.70;99.90;;;;;;5056689;28;20555;-92
2022/06/24 05:59:00;;;;;;;5.20;2.40;;;22.60;99.90;;;;;;5055441;28;20516;-89
2022/06/24 06:01:27;;;;;;;3.47;2.60;;;22.60;99.90;;;;;;5054937;28;20188;-91
2022/06/24 06:03:53;;;;;;;3.50;1.90;;;22.70;99.90;;;;;;5056534;28;20174;-89
2022/06/24 06:06:18;;;;;;;5.77;2.70;;;23.00;99.90;;;;;;5056583;28;20423;-93
2022/06/24 06:08:44;;;;;;;6.17;2.30;;;22.90;99.90;;;;;;5056942;28;20248;-89
2022/06/24 06:11:22;;;;;;;4.80;2.70;;;23.10;99.90;;;;;;5055290;28;20508;-90
2022/06/24 06:13:49;;;;;;;3.63;2.60;;;23.30;99.90;;;;;;5056041;28;20190;-89
2022/06/24 06:16:15;;;;;;;3.37;2.80;;;23.50;99.90;;;;;;5056408;28;20438;-86
2022/06/24 06:18:45;;;;;;;6.00;3.33;;;23.30;99.90;;;;;;5054880;28;20422;-91
2022/06/24 06:21:20;;;;;;;2.63;2.43;;;23.30;99.90;;;;;;5054892;28;20433;-87
2022/06/24 06:23:49;;;;;;;3.20;2.90;;;23.60;99.90;;;;;;5056119;28;20415;-89
2022/06/24 06:26:14;;;;;;;2.70;2.33;;;23.60;99.90;;;;;;5054920;28;20436;-92
2022/06/24 06:28:41;;;;;;;2.30;2.00;;;24.00;99.90;;;;;;5055633;28;20826;-92
2022/06/24 06:31:08;;;;;;;3.40;3.10;;;24.40;99.90;;;;;;5054614;28;20260;-92
2022/06/24 06:33:33;;;;;;;4.77;3.30;;;24.30;99.90;;;;;;5054247;28;20785;-89
2022/06/24 06:36:06;;;;;;;3.07;2.77;;;24.00;99.90;;;;;;5055708;28;20498;-91
2022/06/24 06:38:32;;;;;;;3.33;3.03;;;24.00;99.90;;;;;;5055529;28;20176;-93
2022/06/24 06:41:01;;;;;;;3.60;2.63;;;24.00;99.90;;;;;;5054307;28;20533;-90
2022/06/24 06:43:33;;;;;;;3.53;2.93;;;24.50;99.90;;;;;;5053727;28;20524;-88
2022/06/24 06:45:59;;;;;;;3.33;2.20;;;24.30;99.90;;;;;;5055768;28;20422;-89
2022/06/24 06:48:24;;;;;;;2.80;2.40;;;24.80;99.90;;;;;;5057231;28;20764;-88
2022/06/24 06:50:56;;;;;;;5.17;2.73;;;25.00;99.90;;;;;;5054083;28;20663;-86
2022/06/24 06:53:26;;;;;;;3.10;2.80;;;24.90;99.90;;;;;;5053729;28;20185;-92
2022/06/24 06:55:52;;;;;;;3.77;2.80;;;25.10;99.90;;;;;;5052849;28;21138;-93
2022/06/24 06:58:19;;;;;;;4.37;3.07;;;25.10;99.90;;;;;;5055762;28;20422;-91
2022/06/24 07:00:45;;;;;;;3.33;3.13;;;25.40;95.30;;;;;;5055574;28;20223;-94
2022/06/24 07:03:10;;;;;;;4.63;3.00;;;25.50;57.40;;;;;;5053780;28;20428;-93
2022/06/24 07:05:36;;;;;;;3.03;2.50;;;25.50;63.10;;;;;;5054045;28;20175;-86
2022/06/24 07:08:02;;;;;;;3.63;3.33;;;24.90;78.60;;;;;;5058516;28;20183;-93
2022/06/24 07:10:28;;;;;;;3.03;2.70;;;24.90;93.20;;;;;;5055027;28;20550;-95
2022/06/24 07:12:53;;;;;;;3.63;3.07;;;25.10;90.40;;;;;;5060885;28;20426;-93
2022/06/24 07:15:31;;;;;;;3.30;2.37;;;26.00;93.70;;;;;;5057354;28;20516;-95
2022/06/24 07:17:56;;;;;;;3.73;2.80;;;27.10;46.50;;;;;;5058112;28;20234;-94
2022/06/24 07:20:22;;;;;;;5.90;3.80;;;26.90;10.10;;;;;;5059400;28;20559;-92
2022/06/24 07:22:47;;;;;;;2.83;2.63;;;26.50;20.60;;;;;;5055841;28;20184;-94
2022/06/24 07:25:13;;;;;;;2.60;2.40;;;27.00;19.60;;;;;;5055811;28;20178;-95
2022/06/24 07:27:38;;;;;;;4.50;3.03;;;28.00;7.20;;;;;;5056647;28;20177;-93
2022/06/24 07:30:05;;;;;;;4.00;3.50;;;28.70;1.00;;;;;;5055126;28;20233;-92
2022/06/24 07:32:30;;;;;;;3.87;3.57;;;28.90;1.00;;;;;;5054005;28;20646;-94
2022/06/24 07:34:56;;;;;;;3.23;2.97;;;28.90;1.00;;;;;;5054975;28;20420;-92
2022/06/24 07:37:21;;;;;;;3.70;3.40;;;28.60;1.00;;;;;;5054024;28;20169;-94
2022/06/24 07:39:47;;;;;;;2.50;2.30;;;28.80;1.00;;;;;;5054573;28;20214;-93
2022/06/24 07:42:12;;;;;;;4.73;2.70;;;29.30;1.00;;;;;;5054205;28;20179;-96
2022/06/24 07:44:43;;;;;;;2.90;2.50;;;29.30;1.00;;;;;;5054144;28;20178;-92
2022/06/24 07:47:11;;;;;;;4.53;2.40;;;30.10;1.00;;;;;;5054607;28;20181;-91
2022/06/24 07:49:37;;;;;;;3.00;2.67;;;31.10;1.00;;;;;;5054242;28;20423;-95
2022/06/24 07:52:08;;;;;;;3.20;2.50;;;30.90;1.00;;;;;;5058810;28;20420;-95
2022/06/24 07:54:34;;;;;;;5.23;3.20;;;31.70;1.00;;;;;;5060727;28;20170;-95
2022/06/24 07:57:01;;;;;;;5.93;2.77;;;31.10;1.00;;;;;;5056846;28;20416;-94
2022/06/24 07:59:30;;;;;;;2.90;2.60;;;31.20;1.00;;;;;;5055119;28;20874;-92
2022/06/24 08:02:00;;;;;;;4.10;2.50;;;32.00;1.00;;;;;;5059389;28;20434;-95
2022/06/24 08:04:28;;;;;;;3.30;3.03;;;32.80;1.00;;;;;;5060139;28;20423;-95
2022/06/24 08:06:54;;;;;;;3.40;3.10;;;33.30;1.00;;;;;;5060129;28;20424;-94
2022/06/24 08:09:32;;;;;;;2.20;2.00;;;34.60;1.00;;;;;;5054812;28;20415;-91
2022/06/24 08:12:00;;;;;;;3.10;2.90;;;35.30;1.00;;;;;;5054489;28;20169;-91
2022/06/24 08:14:26;;;;;;;4.90;3.37;;;34.60;1.00;;;;;;5054048;28;20423;-92
2022/06/24 08:16:52;;;;;;;2.90;2.60;;;35.70;1.00;;;;;;5054538;28;20424;-89
2022/06/24 08:19:17;;;;;;;3.27;2.97;;;35.60;1.00;;;;;;5055075;28;20197;-93
2022/06/24 08:21:43;;;;;;;3.57;3.03;;;35.30;1.00;;;;;;5054054;28;20189;-89
2022/06/24 08:24:09;;;;;;;2.50;2.30;;;35.30;1.00;;;;;;5054902;28;20178;-91
2022/06/24 08:26:35;;;;;;;2.90;2.70;;;35.60;1.00;;;;;;5055560;28;20174;-92
2022/06/24 08:29:00;;;;;;;3.10;2.90;;;36.20;1.00;;;;;;5053340;28;20229;-92
2022/06/24 08:31:28;;;;;;;3.73;2.90;;;36.60;1.00;;;;;;5052860;28;20181;-89
2022/06/24 08:33:54;;;;;;;3.27;2.70;;;37.80;1.00;;;;;;5054654;28;20192;-89
2022/06/24 08:36:24;;;;;;;2.67;2.47;;;38.10;1.00;;;;;;5054086;28;20405;-91
2022/06/24 08:38:55;;;;;;;2.63;2.43;;;37.80;1.00;;;;;;5052358;28;20180;-92
2022/06/24 08:41:23;;;;;;;5.00;3.00;;;37.90;1.00;;;;;;5053340;28;20805;-93
2022/06/24 08:43:51;;;;;;;2.93;2.60;;;37.40;1.00;;;;;;5055009;28;20515;-91
2022/06/24 08:46:17;;;;;;;2.57;2.37;;;37.10;1.00;;;;;;5055786;28;20507;-94
2022/06/24 08:48:43;;;;;;;3.10;2.90;;;38.10;1.00;;;;;;5055020;28;20462;-93
2022/06/24 08:51:14;;;;;;;4.93;3.10;;;38.10;1.00;;;;;;5055182;28;20610;-92
2022/06/24 08:53:41;;;;;;;3.00;2.80;;;36.70;1.00;;;;;;5053415;28;20180;-86
2022/06/24 08:56:09;;;;;;;3.53;3.27;;;37.70;1.00;;;;;;5053081;28;20444;-90
2022/06/24 08:58:36;;;;;;;3.23;2.93;;;36.30;1.00;;;;;;5053475;28;20420;-91
2022/06/24 09:01:02;;;;;;;3.47;3.17;;;36.30;1.00;;;;;;5054171;28;20468;-91
2022/06/24 09:03:27;;;;;;;4.23;3.40;;;36.60;1.00;;;;;;5054192;28;20847;-93
2022/06/24 09:05:53;;;;;;;4.43;3.10;;;37.80;1.00;;;;;;5057148;28;20201;-93
2022/06/24 09:08:30;;;;;;;2.93;2.73;;;39.60;1.00;;;;;;5057231;28;20170;-93
2022/06/24 09:11:07;;;;;;;3.43;3.10;;;39.20;1.00;;;;;;5058082;28;20173;-92
2022/06/24 09:14:02;;;;;;;3.20;3.00;;;40.10;1.00;;;;;;5059242;28;20419;-92
2022/06/24 09:16:28;;;;;;;3.50;3.30;;;39.80;1.00;;;;;;5055880;28;20447;-90
2022/06/24 09:18:57;;;;;;;3.50;3.13;;;40.40;1.00;;;;;;5056869;28;20427;-88
2022/06/24 09:21:27;;;;;;;3.60;3.30;;;40.80;1.00;;;;;;5056217;28;20235;-91
2022/06/24 09:23:56;;;;;;;4.63;3.33;;;39.20;1.00;;;;;;5058551;28;20404;-91
2022/06/24 09:26:31;;;;;;;3.33;3.00;;;38.50;1.00;;;;;;5051412;28;20469;-91
2022/06/24 09:28:57;;;;;;;5.10;3.33;;;39.90;1.00;;;;;;5037187;28;20495;-90
2022/06/24 09:31:27;;;;;;;3.57;3.27;;;41.50;1.00;;;;;;5052458;28;20488;-90
2022/06/24 09:33:54;;;;;;;2.97;2.73;;;42.30;1.00;;;;;;5037080;28;20862;-91
2022/06/24 09:36:25;;;;;;;3.30;3.00;;;43.80;1.00;;;;;;5052570;28;20440;-91
2022/06/24 09:39:09;;;;;;;3.40;3.03;;;43.70;1.00;;;;;;5053155;28;20468;-90
2022/06/24 09:41:49;;;;;;;5.83;3.30;;;42.90;1.00;;;;;;5053036;28;20452;-91
2022/06/24 09:44:16;;;;;;;4.53;3.33;;;40.30;1.00;;;;;;5037715;28;20427;-91
2022/06/24 09:46:42;;;;;;;3.27;3.07;;;41.70;1.00;;;;;;5052565;28;20421;-91
2022/06/24 09:49:17;;;;;;;4.03;3.57;;;42.10;1.00;;;;;;5052513;28;20416;-91
2022/06/24 09:51:44;;;;;;;4.63;3.37;;;41.80;1.00;;;;;;5035790;28;20463;-90
2022/06/24 09:54:11;;;;;;;4.03;3.73;;;42.30;1.00;;;;;;5036855;28;20413;-92
2022/06/24 09:56:38;;;;;;;3.33;3.03;;;43.30;1.00;;;;;;5036696;28;20409;-90
2022/06/24 10:01:53;;;;;;;4.03;3.10;;;42.00;1.00;;;;;;5036532;28;20392;-88
2022/06/24 10:04:20;;;;;;;3.70;2.90;;;41.30;1.00;;;;;;5036506;28;20413;-89
2022/06/24 10:06:48;;;;;;;3.27;2.93;;;42.20;1.00;;;;;;5036275;28;20401;-90
2022/06/24 10:09:14;;;;;;;4.57;4.13;;;41.70;1.00;;;;;;5036054;28;20453;-91
2022/06/24 10:11:44;;;;;;;3.00;2.80;;;41.90;1.00;;;;;;5036379;28;20427;-92
2022/06/24 10:14:12;;;;;;;3.03;2.80;;;42.80;1.00;;;;;;5036315;28;20405;-91
2022/06/24 10:16:40;;;;;;;4.07;3.77;;;40.60;1.00;;;;;;5051511;28;20488;-89
2022/06/24 10:19:07;;;;;;;4.20;3.60;;;40.30;1.00;;;;;;5050970;28;20467;-93
2022/06/24 10:21:33;;;;;;;3.27;3.07;;;40.30;1.00;;;;;;5036470;28;20582;-91
2022/06/24 10:23:59;;;;;;;3.40;3.10;;;41.10;1.00;;;;;;5034937;28;20505;-88
2022/06/24 10:26:34;;;;;;;3.13;2.90;;;40.60;1.00;;;;;;5036108;28;20457;-90
2022/06/24 10:29:00;;;;;;;3.53;3.27;;;41.30;1.00;;;;;;5050918;28;20225;-90
2022/06/24 10:31:52;;;;;;;3.50;3.20;;;40.70;1.00;;;;;;5051541;28;20420;-90
2022/06/24 10:34:25;;;;;;;5.30;3.63;;;42.50;1.00;;;;;;5035895;28;20162;-91
2022/06/24 10:36:59;;;;;;;3.07;2.87;;;42.10;1.00;;;;;;5035883;28;20774;-90
2022/06/24 10:39:27;;;;;;;3.27;3.03;;;41.50;1.00;;;;;;5036109;28;20423;-90
2022/06/24 10:42:03;;;;;;;3.53;3.00;;;42.60;1.00;;;;;;5051530;28;20423;-91
2022/06/24 10:44:30;;;;;;;5.10;3.20;;;42.90;1.00;;;;;;5034237;28;20567;-89
2022/06/24 10:47:05;;;;;;;3.53;3.23;;;41.50;1.00;;;;;;5036304;28;20405;-89
2022/06/24 10:49:49;;;;;;;4.30;3.70;;;41.20;1.00;;;;;;5044894;28;20463;-88
2022/06/24 10:52:32;;;;;;;4.67;4.27;;;39.40;1.00;;;;;;5043098;28;20436;-89
2022/06/24 10:55:20;;;;;;;4.97;3.70;;;38.00;1.00;;;;;;5058065;28;20424;-87
2022/06/24 10:58:04;;;;;;;4.77;4.23;;;35.40;1.00;;;;;;5058323;28;20425;-90
2022/06/24 11:00:59;;;;;;;4.20;3.60;;;34.30;1.00;;;;;;5036458;28;20449;-90
2022/06/24 11:03:29;;;;;;;4.47;4.07;;;36.10;1.00;;;;;;5035292;28;20441;-90
2022/06/24 11:05:55;;;;;;;4.70;4.13;;;35.70;1.00;;;;;;5035591;28;20412;-90
2022/06/24 11:08:23;;;;;;;4.70;4.40;;;35.30;1.00;;;;;;5035344;28;20415;-92
2022/06/24 11:10:50;;;;;;;4.50;4.10;;;36.80;1.00;;;;;;5034011;28;20339;-92
2022/06/24 11:13:17;;;;;;;5.07;4.57;;;38.00;1.00;;;;;;5034872;28;20505;-90
2022/06/24 11:15:45;;;;;;;4.33;3.80;;;38.20;1.00;;;;;;5050192;28;20963;-90
2022/06/24 11:18:19;;;;;;;4.17;3.87;;;39.80;1.00;;;;;;5034854;28;20415;-90
2022/06/24 11:20:47;;;;;;;4.53;4.13;;;39.80;1.00;;;;;;5034906;28;20406;-92
2022/06/24 11:23:15;;;;;;;4.47;4.07;;;40.30;1.00;;;;;;5050394;28;20859;-90
2022/06/24 11:25:48;;;;;;;4.53;4.00;;;40.40;1.00;;;;;;5050085;28;20508;-88
2022/06/24 11:28:22;;;;;;;4.57;4.27;;;41.10;1.00;;;;;;5050023;28;20456;-90
2022/06/24 11:30:48;;;;;;;4.03;3.73;;;43.50;1.00;;;;;;5033505;28;20496;-87
2022/06/24 11:33:17;;;;;;;4.77;3.63;;;43.60;1.00;;;;;;5034976;28;20409;-90
2022/06/24 11:35:44;;;;;;;3.67;3.30;;;42.90;1.00;;;;;;5034621;28;20417;-90
2022/06/24 11:38:10;;;;;;;3.57;3.10;;;43.60;1.00;;;;;;5034462;28;20905;-87
2022/06/24 11:40:37;;;;;;;4.10;3.70;;;42.20;1.00;;;;;;5034344;28;20815;-89
2022/06/24 11:43:09;;;;;;;3.30;3.00;;;41.00;1.00;;;;;;5034443;28;20940;-89
2022/06/24 11:45:38;;;;;;;5.17;3.50;;;42.50;1.00;;;;;;5034203;28;20420;-89
2022/06/24 11:48:04;;;;;;;4.30;3.23;;;41.50;1.00;;;;;;5033064;28;20496;-88
2022/06/24 11:50:32;;;;;;;3.03;2.83;;;40.90;1.00;;;;;;5049600;28;20479;-90
2022/06/24 11:52:59;;;;;;;3.60;3.30;;;40.80;1.00;;;;;;5034607;28;20409;-89
2022/06/24 11:55:29;;;;;;;4.20;3.70;;;40.10;1.00;;;;;;5034453;28;20413;-90
2022/06/24 11:57:59;;;;;;;4.23;3.63;;;41.00;1.00;;;;;;5034275;28;20906;-89
2022/06/24 12:00:27;;;;;;;4.03;3.60;;;40.50;1.00;;;;;;5034241;28;20983;-89
2022/06/24 12:02:55;;;;;;;4.00;3.67;;;40.00;1.00;;;;;;5035152;28;20818;-89
2022/06/24 12:05:22;;;;;;;4.50;4.13;;;37.40;1.00;;;;;;5050330;28;20459;-88
2022/06/24 12:07:51;;;;;;;5.67;4.30;;;35.50;1.00;;;;;;5033113;28;20428;-86
2022/06/24 12:10:20;;;;;;;4.07;3.77;;;34.10;1.00;;;;;;5035005;28;20472;-88
2022/06/24 12:12:59;;;;;;;4.40;3.40;;;33.90;1.00;;;;;;5034453;28;20500;-94
2022/06/24 12:15:27;;;;;;;4.73;4.33;;;34.90;1.00;;;;;;5049326;28;21016;-89
2022/06/24 12:17:54;;;;;;;6.90;4.10;;;34.40;1.00;;;;;;5034196;28;20405;-88
2022/06/24 12:20:25;;;;;;;3.87;3.57;;;33.10;1.00;;;;;;5034206;28;20913;-91
2022/06/24 12:23:18;;;;;;;6.10;4.67;;;32.20;1.00;;;;;;5035519;28;20492;-91
2022/06/24 12:25:47;;;;;;;5.00;4.50;;;31.10;1.00;;;;;;5048879;28;20409;-90
2022/06/24 12:28:22;;;;;;;5.27;4.43;;;30.40;1.00;;;;;;5034161;28;20457;-89
2022/06/24 12:31:05;;;;;;;11.40;5.50;;;29.80;1.00;;;;;;5033845;28;20471;-88
2022/06/24 12:33:35;;;;;;;6.60;5.50;;;29.30;1.00;;;;;;5033482;28;20412;-90
2022/06/24 12:36:02;;;;;;;5.50;5.00;;;28.90;1.00;;;;;;5049850;28;20412;-88
2022/06/24 12:38:28;;;;;;;4.77;4.27;;;28.40;1.00;;;;;;5033953;28;20404;-89
2022/06/24 12:41:04;;;;;;;3.90;3.50;;;28.20;1.00;;;;;;5032908;28;20771;-90
2022/06/24 12:43:29;;;;;;;5.57;3.40;;;27.90;1.00;;;;;;5048952;28;20171;-88
2022/06/24 12:45:56;;;;;;;5.63;2.80;;;28.00;1.00;;;;;;5031733;28;20425;-90
2022/06/24 12:51:07;;;;;;;14.40;5.20;;;28.10;1.00;;;;;;5033012;28;20480;-88
2022/06/24 12:53:33;;;;;;;3.17;2.87;;;28.40;1.00;;;;;;5031929;28;20417;-89
2022/06/24 12:55:59;;;;;;;4.27;2.90;;;28.60;1.00;;;;;;5048577;28;20166;-89
2022/06/24 12:58:25;;;;;;;4.03;3.63;;;28.70;1.00;;;;;;5033003;28;20249;-89
2022/06/24 13:00:50;;;;;;;3.87;3.23;;;28.80;1.00;;;;;;5031334;28;20496;-89
2022/06/24 13:03:18;;;;;;;5.30;3.77;;;28.90;1.00;;;;;;5032995;28;20309;-90
2022/06/24 13:05:44;;;;;;;8.87;5.47;;;28.50;1.00;;;;;;5032709;28;20162;-89
2022/06/24 13:08:09;;;;;;;5.67;3.93;;;28.20;1.00;;;;;;5048167;28;20420;-91